Time;durP1;ratioP1;P1;durP2;ratioP2;P2;SDS_P1;SDS_P2;PMS_P1;PMS_P2;Temp;Humidity;BMP_temperature;BMP_pressure;BME280_temperature;BME280_humidity;BME280_pressure;Samples;Min_cycle;Max_cycle;Signal;HPM_P1;HPM_P2
2021/03/06 00:01:41;;;;;;;16.92;11.73;;;-0.20;99.90;;;;;;4898170;29;20075;-78
2021/03/06 00:04:07;;;;;;;42.38;26.25;;;-0.30;99.90;;;;;;4898326;29;20040;-76
2021/03/06 00:06:38;;;;;;;62.85;39.15;;;-0.30;99.90;;;;;;4898219;29;20071;-76
2021/03/06 00:09:09;;;;;;;34.80;22.95;;;-0.40;99.90;;;;;;4897630;29;20068;-77
2021/03/06 00:11:35;;;;;;;24.10;16.73;;;-0.30;99.90;;;;;;4898119;29;20040;-77
2021/03/06 00:14:02;;;;;;;23.70;17.13;;;-0.40;99.90;;;;;;4914849;29;20037;-77
2021/03/06 00:16:33;;;;;;;20.17;14.07;;;-0.40;99.90;;;;;;4898098;29;20454;-76
2021/03/06 00:19:04;;;;;;;30.70;22.27;;;-0.40;99.90;;;;;;4897403;29;20040;-77
2021/03/06 00:21:30;;;;;;;28.92;20.33;;;-0.40;99.90;;;;;;4897954;29;20104;-76
2021/03/06 00:24:02;;;;;;;28.35;19.55;;;-0.50;99.90;;;;;;4897423;29;20044;-77
2021/03/06 00:26:33;;;;;;;20.45;13.27;;;-0.50;99.90;;;;;;4898205;29;20333;-77
2021/03/06 00:29:05;;;;;;;29.30;18.48;;;-0.50;99.90;;;;;;4883340;29;20044;-77
2021/03/06 00:31:37;;;;;;;43.72;21.23;;;-0.60;99.90;;;;;;4915278;29;20048;-77
2021/03/06 00:34:08;;;;;;;32.35;17.70;;;-0.60;99.90;;;;;;4898229;29;20044;-77
2021/03/06 00:36:40;;;;;;;32.72;17.67;;;-0.60;99.90;;;;;;4898176;29;20056;-76
2021/03/06 00:39:06;;;;;;;33.88;18.10;;;-0.70;99.90;;;;;;4897835;29;20147;-78
2021/03/06 00:41:33;;;;;;;34.95;17.58;;;-0.70;99.90;;;;;;4898062;29;20511;-76
2021/03/06 00:44:05;;;;;;;28.23;15.45;;;-0.70;99.90;;;;;;4898045;29;20048;-77
2021/03/06 00:46:32;;;;;;;21.58;13.98;;;-0.70;99.90;;;;;;4897982;29;20068;-77
2021/03/06 00:49:03;;;;;;;21.45;13.18;;;-0.70;99.90;;;;;;4897847;29;20119;-77
2021/03/06 00:51:35;;;;;;;18.17;9.77;;;-0.70;99.90;;;;;;4897825;29;20056;-77
2021/03/06 00:54:09;;;;;;;9.93;6.60;;;-0.80;99.90;;;;;;4897869;29;20044;-76
2021/03/06 00:56:41;;;;;;;7.78;5.55;;;-0.70;99.90;;;;;;4897887;29;20079;-77
2021/03/06 00:59:15;;;;;;;7.88;5.60;;;-0.70;99.90;;;;;;4897678;29;20044;-77
2021/03/06 01:01:49;;;;;;;7.40;5.32;;;-0.80;99.90;;;;;;4897903;29;20044;-76
2021/03/06 01:04:21;;;;;;;10.07;6.25;;;-0.80;99.90;;;;;;4898463;29;20457;-78
2021/03/06 01:06:48;;;;;;;8.20;6.15;;;-0.80;99.90;;;;;;4898059;29;20135;-77
2021/03/06 01:09:14;;;;;;;8.75;6.78;;;-0.80;99.90;;;;;;4897494;29;20054;-77
2021/03/06 01:11:45;;;;;;;8.45;5.80;;;-0.80;99.90;;;;;;4897622;29;20461;-77
2021/03/06 01:14:17;;;;;;;8.52;6.13;;;-0.90;99.90;;;;;;4897671;29;20075;-77
2021/03/06 01:16:43;;;;;;;6.90;5.60;;;-0.90;99.90;;;;;;4897449;29;20160;-77
2021/03/06 01:19:14;;;;;;;8.63;5.80;;;-0.90;99.90;;;;;;4882777;29;20130;-77
2021/03/06 01:21:45;;;;;;;7.22;5.47;;;-0.90;99.90;;;;;;4896998;29;20044;-77
2021/03/06 01:24:12;;;;;;;7.80;6.07;;;-1.00;99.90;;;;;;4897423;29;20052;-77
2021/03/06 01:26:38;;;;;;;6.85;4.95;;;-1.00;99.90;;;;;;4897493;29;20150;-76
2021/03/06 01:29:04;;;;;;;8.88;5.60;;;-1.00;99.90;;;;;;4897206;29;20052;-76
2021/03/06 01:31:36;;;;;;;8.05;5.50;;;-1.00;99.90;;;;;;4897651;29;20052;-77
2021/03/06 01:34:07;;;;;;;7.68;5.32;;;-1.10;99.90;;;;;;4898301;29;20127;-77
2021/03/06 01:36:38;;;;;;;6.88;5.20;;;-1.10;99.90;;;;;;4897264;29;20048;-77
2021/03/06 01:39:10;;;;;;;6.53;5.43;;;-1.10;99.90;;;;;;4897283;29;20052;-78
2021/03/06 01:41:41;;;;;;;7.45;5.68;;;-1.10;99.90;;;;;;4897281;29;20527;-76
2021/03/06 01:44:08;;;;;;;7.32;5.28;;;-1.10;99.90;;;;;;4897063;29;20092;-77
2021/03/06 01:46:35;;;;;;;8.20;5.78;;;-1.10;99.90;;;;;;4897166;29;20159;-77
2021/03/06 01:49:01;;;;;;;8.50;5.53;;;-1.10;99.90;;;;;;4896825;29;20052;-77
2021/03/06 01:51:33;;;;;;;7.78;6.03;;;-1.10;99.90;;;;;;4897701;29;20052;-77
2021/03/06 01:54:06;;;;;;;7.85;5.28;;;-1.20;99.90;;;;;;4882203;29;20570;-77
2021/03/06 01:56:32;;;;;;;8.70;6.00;;;-1.20;99.90;;;;;;4896852;29;20139;-78
2021/03/06 01:59:03;;;;;;;6.68;5.32;;;-1.20;99.90;;;;;;4897410;29;20500;-77
2021/03/06 02:01:30;;;;;;;7.32;5.43;;;-1.30;99.90;;;;;;4896908;29;20052;-77
2021/03/06 02:04:02;;;;;;;8.13;6.03;;;-1.30;99.90;;;;;;4881646;29;20054;-78
2021/03/06 02:06:33;;;;;;;9.40;5.63;;;-1.30;99.90;;;;;;4896627;29;20575;-77
2021/03/06 02:09:05;;;;;;;7.70;5.18;;;-1.30;99.90;;;;;;4896209;29;20048;-78
2021/03/06 02:12:15;;;;;;;8.63;5.70;;;-1.40;99.90;;;;;;4897671;29;20125;-77
2021/03/06 02:15:24;;;;;;;7.20;4.88;;;-1.40;99.90;;;;;;4897011;29;20048;-77
2021/03/06 02:18:04;;;;;;;6.32;5.35;;;-1.40;99.90;;;;;;4896585;29;20052;-77
2021/03/06 02:20:39;;;;;;;7.53;5.15;;;-1.40;99.90;;;;;;4896795;29;20139;-78
2021/03/06 02:23:35;;;;;;;6.82;5.00;;;-1.40;99.90;;;;;;4897428;29;20461;-77
2021/03/06 02:26:32;;;;;;;7.00;5.53;;;-1.40;99.90;;;;;;4881907;29;20051;-77
2021/03/06 02:29:52;;;;;;;7.13;5.07;;;-1.50;99.90;;;;;;4896404;29;20067;-77
2021/03/06 02:32:27;;;;;;;7.13;4.80;;;-1.50;99.90;;;;;;4868291;29;20058;-77
2021/03/06 02:35:02;;;;;;;8.27;5.53;;;-1.50;99.90;;;;;;4900240;29;20075;-77
2021/03/06 02:37:33;;;;;;;7.53;4.85;;;-1.50;99.90;;;;;;4900617;29;20127;-77
2021/03/06 02:40:01;;;;;;;8.05;5.45;;;-1.60;99.90;;;;;;4900069;29;20075;-77
2021/03/06 02:42:34;;;;;;;7.93;5.97;;;-1.70;99.90;;;;;;4885265;29;20054;-77
2021/03/06 02:45:07;;;;;;;6.72;4.90;;;-1.70;99.90;;;;;;4900240;29;20048;-77
2021/03/06 02:47:34;;;;;;;8.25;5.57;;;-1.70;99.90;;;;;;4900412;29;20047;-77
2021/03/06 02:50:03;;;;;;;10.70;5.53;;;-1.70;99.90;;;;;;4916807;29;20052;-77
2021/03/06 02:52:35;;;;;;;9.82;6.13;;;-1.70;99.90;;;;;;4900245;29;20139;-77
2021/03/06 02:55:01;;;;;;;7.40;5.20;;;-1.80;99.90;;;;;;4900299;29;20116;-77
2021/03/06 02:57:38;;;;;;;8.82;5.72;;;-1.80;99.90;;;;;;4900130;29;20048;-77
2021/03/06 03:00:31;;;;;;;7.10;5.28;;;-1.80;99.90;;;;;;4900019;29;20112;-77
2021/03/06 03:03:36;;;;;;;9.30;5.90;;;-1.80;99.90;;;;;;4899806;29;20056;-77
2021/03/06 03:06:21;;;;;;;8.25;5.60;;;-1.90;99.90;;;;;;4884493;29;20054;-77
2021/03/06 03:09:08;;;;;;;7.85;5.38;;;-1.90;99.90;;;;;;4884780;29;20059;-77
2021/03/06 03:12:07;;;;;;;8.40;5.45;;;-1.90;99.90;;;;;;4899821;29;20139;-77
2021/03/06 03:14:54;;;;;;;7.07;5.45;;;-2.00;99.90;;;;;;4880913;29;20483;-77
2021/03/06 03:17:38;;;;;;;8.85;5.90;;;-2.00;99.90;;;;;;4900584;29;20083;-77
2021/03/06 03:20:35;;;;;;;8.93;5.95;;;-2.00;99.90;;;;;;4899435;29;20055;-77
2021/03/06 03:23:14;;;;;;;12.30;7.57;;;-2.00;99.90;;;;;;4899606;29;20078;-77
2021/03/06 03:25:46;;;;;;;10.73;6.72;;;-2.00;99.90;;;;;;4899649;29;20055;-78
2021/03/06 03:28:14;;;;;;;8.20;5.93;;;-2.10;99.90;;;;;;4899243;29;20095;-77
2021/03/06 03:30:46;;;;;;;6.57;4.97;;;-2.10;99.90;;;;;;4899920;29;20050;-77
2021/03/06 03:33:14;;;;;;;8.55;4.88;;;-2.10;99.90;;;;;;4916240;29;20054;-78
2021/03/06 03:35:46;;;;;;;6.15;5.10;;;-2.10;99.90;;;;;;4899352;29;20042;-78
2021/03/06 03:38:18;;;;;;;6.88;5.28;;;-2.10;99.90;;;;;;4899233;29;20125;-77
2021/03/06 03:40:50;;;;;;;9.07;5.45;;;-2.10;99.90;;;;;;4916437;29;20055;-77
2021/03/06 03:43:23;;;;;;;8.40;5.60;;;-2.20;99.90;;;;;;4899188;29;20079;-77
2021/03/06 03:45:55;;;;;;;8.57;5.07;;;-2.20;99.90;;;;;;4899323;29;20422;-78
2021/03/06 03:48:22;;;;;;;7.78;5.18;;;-2.30;99.90;;;;;;4898922;29;20464;-77
2021/03/06 03:50:54;;;;;;;8.27;5.05;;;-2.30;99.90;;;;;;4899127;29;20044;-77
2021/03/06 03:53:21;;;;;;;7.60;5.32;;;-2.30;99.90;;;;;;4899281;29;20108;-78
2021/03/06 03:55:52;;;;;;;8.90;5.32;;;-2.30;99.90;;;;;;4899288;29;20525;-77
2021/03/06 03:58:24;;;;;;;7.82;5.65;;;-2.30;99.90;;;;;;4898949;29;20075;-77
2021/03/06 04:01:00;;;;;;;6.85;4.93;;;-2.30;99.90;;;;;;4899512;29;20048;-77
2021/03/06 04:03:31;;;;;;;7.88;5.28;;;-2.30;99.90;;;;;;4899017;29;20087;-77
2021/03/06 04:06:00;;;;;;;10.35;5.78;;;-2.30;99.90;;;;;;4899355;29;20051;-77
2021/03/06 04:08:31;;;;;;;9.02;5.18;;;-2.30;99.90;;;;;;4898680;29;20130;-77
2021/03/06 04:11:03;;;;;;;10.15;6.63;;;-2.40;99.90;;;;;;4884003;29;20044;-77
2021/03/06 04:13:29;;;;;;;11.50;7.25;;;-2.40;99.90;;;;;;4883188;29;20044;-78
2021/03/06 04:15:55;;;;;;;11.88;7.25;;;-2.40;99.90;;;;;;4898900;29;20510;-77
2021/03/06 04:18:26;;;;;;;9.52;6.10;;;-2.40;99.90;;;;;;4898556;29;20067;-77
2021/03/06 04:20:58;;;;;;;8.75;6.10;;;-2.40;99.90;;;;;;4898716;29;20078;-77
2021/03/06 04:23:29;;;;;;;12.60;6.55;;;-2.50;99.90;;;;;;4883872;29;20048;-78
2021/03/06 04:25:55;;;;;;;9.15;6.28;;;-2.50;99.90;;;;;;4898676;29;20052;-78
2021/03/06 04:28:21;;;;;;;9.73;6.15;;;-2.50;99.90;;;;;;4898379;29;20052;-77
2021/03/06 04:30:48;;;;;;;9.63;6.00;;;-2.50;99.90;;;;;;4898761;29;20055;-78
2021/03/06 04:33:19;;;;;;;7.90;5.70;;;-2.50;99.90;;;;;;4898534;29;20413;-78
2021/03/06 04:35:45;;;;;;;11.75;6.40;;;-2.50;99.90;;;;;;4883084;29;20044;-78
2021/03/06 04:38:17;;;;;;;8.85;5.47;;;-2.50;99.90;;;;;;4898022;29;20492;-77
2021/03/06 04:40:43;;;;;;;10.95;7.22;;;-2.60;99.90;;;;;;4898220;29;20143;-77
2021/03/06 04:43:14;;;;;;;9.82;6.80;;;-2.60;99.90;;;;;;4898189;29;20407;-77
2021/03/06 04:45:46;;;;;;;10.43;6.40;;;-2.60;99.90;;;;;;4883536;29;20063;-77
2021/03/06 04:48:17;;;;;;;9.85;6.82;;;-2.60;99.90;;;;;;4883143;29;20056;-78
2021/03/06 04:50:48;;;;;;;10.55;6.47;;;-2.60;99.90;;;;;;4898061;29;20139;-77
2021/03/06 04:53:20;;;;;;;9.38;6.00;;;-2.70;99.90;;;;;;4898158;29;20052;-78
2021/03/06 04:55:51;;;;;;;7.50;5.20;;;-2.70;99.90;;;;;;4897393;29;20403;-77
2021/03/06 04:58:22;;;;;;;9.93;5.35;;;-2.80;99.90;;;;;;4898481;29;20060;-77
2021/03/06 05:00:48;;;;;;;9.05;5.95;;;-2.80;99.90;;;;;;4897874;29;20450;-77
2021/03/06 05:03:19;;;;;;;8.40;6.00;;;-2.90;99.90;;;;;;4898074;29;20059;-77
2021/03/06 05:05:51;;;;;;;10.23;6.70;;;-2.80;99.90;;;;;;4897678;29;20043;-78
2021/03/06 05:08:22;;;;;;;7.82;5.90;;;-2.80;99.90;;;;;;4897696;29;20048;-78
2021/03/06 05:10:53;;;;;;;7.40;5.45;;;-2.80;99.90;;;;;;4898012;29;20048;-77
2021/03/06 05:13:19;;;;;;;8.90;5.82;;;-2.80;99.90;;;;;;4897679;29;20040;-78
2021/03/06 05:15:51;;;;;;;7.50;5.57;;;-2.90;99.90;;;;;;4898436;29;20051;-78
2021/03/06 05:18:17;;;;;;;8.88;5.68;;;-2.80;99.90;;;;;;4897418;29;20123;-78
2021/03/06 05:20:48;;;;;;;8.02;5.63;;;-2.80;99.90;;;;;;4897590;29;20423;-78
2021/03/06 05:23:20;;;;;;;9.40;6.07;;;-2.80;99.90;;;;;;4897669;29;20526;-77
2021/03/06 05:25:46;;;;;;;8.85;6.10;;;-2.90;99.90;;;;;;4881978;29;20143;-78
2021/03/06 05:28:23;;;;;;;9.05;5.88;;;-2.90;99.90;;;;;;4897057;29;20056;-78
2021/03/06 05:30:54;;;;;;;8.13;5.97;;;-2.90;99.90;;;;;;4897180;29;20054;-77
2021/03/06 05:33:25;;;;;;;7.50;5.28;;;-2.90;99.90;;;;;;4898306;29;20498;-77
2021/03/06 05:35:52;;;;;;;7.78;5.85;;;-2.90;99.90;;;;;;4881854;29;20048;-77
2021/03/06 05:38:23;;;;;;;10.07;5.78;;;-2.90;99.90;;;;;;4897112;29;20044;-78
2021/03/06 05:40:54;;;;;;;8.05;5.68;;;-2.90;99.90;;;;;;4897196;29;20048;-77
2021/03/06 05:43:26;;;;;;;10.52;6.43;;;-2.90;99.90;;;;;;4897140;29;20058;-78
2021/03/06 05:45:57;;;;;;;11.02;7.15;;;-2.90;99.90;;;;;;4882234;29;20415;-77
2021/03/06 05:48:25;;;;;;;11.50;7.60;;;-2.90;99.90;;;;;;4898495;29;20135;-82
2021/03/06 05:50:53;;;;;;;10.30;6.80;;;-2.90;99.90;;;;;;4902294;29;20048;-80
2021/03/06 05:53:27;;;;;;;8.85;5.53;;;-2.90;99.90;;;;;;4883599;29;20063;-80
2021/03/06 05:55:59;;;;;;;;;;;-2.90;99.90;;;;;;4898982;29;20496;-80
2021/03/06 05:58:30;;;;;;;9.90;6.18;;;-2.80;99.90;;;;;;4897997;29;19927;-79
2021/03/06 06:01:03;;;;;;;8.98;6.28;;;-2.80;99.90;;;;;;4898237;29;20058;-80
2021/03/06 06:03:34;;;;;;;9.50;6.15;;;-2.80;99.90;;;;;;4898175;29;20075;-80
2021/03/06 06:06:00;;;;;;;8.63;5.53;;;-2.80;99.90;;;;;;4898236;29;20059;-80
2021/03/06 06:08:34;;;;;;;9.52;5.88;;;-2.80;99.90;;;;;;4888787;29;20078;-80
2021/03/06 06:11:05;;;;;;;9.52;5.82;;;-2.80;99.90;;;;;;4904498;29;20168;-81
2021/03/06 06:13:36;;;;;;;8.32;5.50;;;-2.80;99.90;;;;;;4903824;29;20103;-79
2021/03/06 06:16:08;;;;;;;7.47;4.93;;;-2.80;99.90;;;;;;4901945;29;20046;-79
2021/03/06 06:18:39;;;;;;;10.07;5.63;;;-2.80;99.90;;;;;;4916972;29;20042;-79
2021/03/06 06:21:39;;;;;;;7.75;5.25;;;-2.80;99.90;;;;;;4899836;29;20044;-80
2021/03/06 06:24:24;;;;;;;8.13;5.63;;;-2.80;99.90;;;;;;4915795;29;20427;-79
2021/03/06 06:27:00;;;;;;;8.70;5.45;;;-2.80;99.90;;;;;;4901899;29;20062;-79
2021/03/06 06:29:46;;;;;;;9.70;5.45;;;-2.80;99.90;;;;;;4897746;29;20456;-79
2021/03/06 06:32:19;;;;;;;8.63;5.55;;;-2.80;99.90;;;;;;4899488;29;20727;-79
2021/03/06 06:35:05;;;;;;;11.80;5.63;;;-2.70;99.90;;;;;;4886583;29;20052;-79
2021/03/06 06:37:36;;;;;;;8.35;5.80;;;-2.70;99.90;;;;;;4889548;29;20049;-79
2021/03/06 06:40:23;;;;;;;8.45;5.43;;;-2.70;99.90;;;;;;4898918;29;20051;-80
2021/03/06 06:42:54;;;;;;;9.02;5.70;;;-2.60;99.90;;;;;;4889468;29;20146;-79
2021/03/06 06:45:36;;;;;;;8.50;5.40;;;-2.60;99.90;;;;;;4918928;29;20410;-79
2021/03/06 06:48:10;;;;;;;8.88;5.60;;;-2.60;99.90;;;;;;4901460;29;20050;-79
2021/03/06 06:50:42;;;;;;;30.92;12.43;;;-2.50;99.90;;;;;;4902515;29;20040;-79
2021/03/06 06:53:27;;;;;;;12.95;7.40;;;-2.50;99.90;;;;;;4889626;29;20044;-79
2021/03/06 06:55:58;;;;;;;12.00;7.22;;;-2.50;99.90;;;;;;4887122;29;20040;-79
2021/03/06 06:58:35;;;;;;;8.88;5.50;;;-2.50;99.90;;;;;;4901271;29;20043;-79
2021/03/06 07:01:44;;;;;;;9.93;5.50;;;-2.40;99.90;;;;;;4901891;29;20139;-79
2021/03/06 07:04:15;;;;;;;10.40;6.13;;;-2.30;99.90;;;;;;4897952;29;20059;-79
2021/03/06 07:06:57;;;;;;;11.10;6.93;;;-2.20;99.90;;;;;;4901665;29;20668;-79
2021/03/06 07:09:29;;;;;;;11.43;7.38;;;-2.10;99.90;;;;;;4901017;29;20052;-78
2021/03/06 07:12:16;;;;;;;8.52;5.45;;;-2.10;99.90;;;;;;4888178;29;20495;-79
2021/03/06 07:14:47;;;;;;;8.52;5.35;;;-2.10;99.90;;;;;;4868562;29;20107;-79
2021/03/06 07:17:18;;;;;;;12.98;6.70;;;-2.10;99.90;;;;;;4882657;29;20516;-78
2021/03/06 07:19:50;;;;;;;9.35;6.70;;;-2.00;99.90;;;;;;4880758;29;20139;-79
2021/03/06 07:22:28;;;;;;;10.48;5.68;;;-2.00;99.90;;;;;;4882265;29;20048;-79
2021/03/06 07:25:00;;;;;;;9.57;5.85;;;-2.00;99.90;;;;;;4871129;29;20047;-79
2021/03/06 07:27:31;;;;;;;9.32;5.85;;;-1.90;99.90;;;;;;4896951;29;20068;-78
2021/03/06 07:29:58;;;;;;;19.73;11.43;;;-1.80;99.90;;;;;;4905863;29;20047;-78
2021/03/06 07:32:31;;;;;;;10.60;6.88;;;-1.70;99.90;;;;;;4914458;29;20411;-78
2021/03/06 07:35:05;;;;;;;11.90;6.32;;;-1.60;99.90;;;;;;4898802;29;20040;-78
2021/03/06 07:37:38;;;;;;;10.23;5.50;;;-1.60;99.90;;;;;;4899791;29;20047;-79
2021/03/06 07:40:14;;;;;;;12.57;4.97;;;-1.50;99.90;;;;;;4898450;29;20036;-80
2021/03/06 07:42:47;;;;;;;7.57;5.35;;;-1.40;99.90;;;;;;4899531;29;20299;-79
2021/03/06 07:45:20;;;;;;;6.82;4.28;;;-1.40;99.90;;;;;;4898825;29;20059;-78
2021/03/06 07:47:50;;;;;;;8.20;5.15;;;-1.20;99.90;;;;;;4898483;29;20129;-79
2021/03/06 07:50:26;;;;;;;10.60;5.93;;;-1.20;99.90;;;;;;4898666;29;20052;-79
2021/03/06 07:53:00;;;;;;;8.18;5.40;;;-1.20;99.90;;;;;;4899247;29;20044;-78
2021/03/06 07:55:32;;;;;;;6.72;5.03;;;-1.10;99.90;;;;;;4883713;29;20496;-79
2021/03/06 07:58:16;;;;;;;8.98;5.18;;;-1.00;99.90;;;;;;4899185;29;20044;-79
2021/03/06 08:00:58;;;;;;;10.05;5.47;;;-0.90;99.90;;;;;;4901406;29;20048;-79
2021/03/06 08:03:38;;;;;;;7.68;4.38;;;-0.60;99.90;;;;;;4901475;29;20079;-78
2021/03/06 08:06:19;;;;;;;12.02;5.65;;;-0.30;99.90;;;;;;4908844;29;20135;-80
2021/03/06 08:08:51;;;;;;;13.70;6.80;;;0.00;99.90;;;;;;4914994;29;20056;-79
2021/03/06 08:11:23;;;;;;;6.55;4.47;;;0.00;99.90;;;;;;4898600;29;20055;-79
2021/03/06 08:13:56;;;;;;;7.80;4.85;;;0.00;99.90;;;;;;4899142;29;20147;-79
2021/03/06 08:16:27;;;;;;;6.40;4.60;;;0.00;99.90;;;;;;4914760;29;20064;-79
2021/03/06 08:18:56;;;;;;;9.27;6.05;;;0.00;99.90;;;;;;4914094;29;20871;-79
2021/03/06 08:21:42;;;;;;;8.85;4.68;;;0.00;99.90;;;;;;4898742;29;20144;-79
2021/03/06 08:24:18;;;;;;;7.97;4.50;;;0.10;99.90;;;;;;4883465;29;20050;-79
2021/03/06 08:27:02;;;;;;;7.93;4.43;;;0.20;99.90;;;;;;4914731;29;20079;-79
2021/03/06 08:29:40;;;;;;;5.68;4.20;;;0.20;99.90;;;;;;4897305;29;20099;-79
2021/03/06 08:32:29;;;;;;;7.28;4.38;;;0.30;99.90;;;;;;4897517;29;20103;-80
2021/03/06 08:35:24;;;;;;;7.65;4.38;;;0.40;99.90;;;;;;4898025;29;20294;-80
2021/03/06 08:37:55;;;;;;;6.07;4.15;;;0.40;99.90;;;;;;4897672;29;20044;-79
2021/03/06 08:40:27;;;;;;;6.40;4.20;;;0.50;99.90;;;;;;4882420;29;20059;-79
2021/03/06 08:42:58;;;;;;;4.90;3.88;;;0.60;99.90;;;;;;4898233;29;20044;-79
2021/03/06 08:45:30;;;;;;;6.82;4.43;;;0.60;99.90;;;;;;4898043;29;20051;-79
2021/03/06 08:47:58;;;;;;;5.82;4.15;;;0.70;99.90;;;;;;4897559;29;20059;-80
2021/03/06 08:50:31;;;;;;;5.65;3.28;;;0.70;99.90;;;;;;4898048;29;20045;-79
2021/03/06 08:53:13;;;;;;;6.78;4.03;;;0.80;99.90;;;;;;4898056;29;20048;-79
2021/03/06 08:55:45;;;;;;;6.45;3.72;;;0.90;99.90;;;;;;4897821;29;20040;-79
2021/03/06 08:58:18;;;;;;;6.15;3.88;;;1.00;99.90;;;;;;4897705;29;20051;-79
2021/03/06 09:00:51;;;;;;;4.50;3.17;;;1.00;99.90;;;;;;4897869;29;20572;-79
2021/03/06 09:03:24;;;;;;;5.15;3.50;;;1.20;99.90;;;;;;4897829;29;20059;-79
2021/03/06 09:05:58;;;;;;;5.45;3.80;;;1.20;99.90;;;;;;4897715;29;20054;-80
2021/03/06 09:08:29;;;;;;;7.28;3.80;;;1.30;99.90;;;;;;4897213;29;20055;-80
2021/03/06 09:11:01;;;;;;;7.60;3.25;;;1.40;99.90;;;;;;4898894;29;20054;-79
2021/03/06 09:13:32;;;;;;;5.28;3.92;;;1.50;99.90;;;;;;4897679;29;20404;-79
2021/03/06 09:16:04;;;;;;;5.13;4.20;;;1.50;99.90;;;;;;4897544;29;20052;-79
2021/03/06 09:18:38;;;;;;;5.80;3.95;;;1.60;99.90;;;;;;4897977;29;20044;-80
2021/03/06 09:21:20;;;;;;;7.28;4.32;;;1.60;99.90;;;;;;4882925;29;20044;-79
2021/03/06 09:23:52;;;;;;;5.85;4.03;;;1.70;99.90;;;;;;4897570;29;20054;-79
2021/03/06 09:26:27;;;;;;;5.53;3.65;;;1.80;99.90;;;;;;4913751;29;20044;-80
2021/03/06 09:28:55;;;;;;;7.55;4.18;;;1.80;99.90;;;;;;4898788;29;20599;-80
2021/03/06 09:31:30;;;;;;;5.97;3.07;;;1.90;99.90;;;;;;4914312;29;20047;-79
2021/03/06 09:34:02;;;;;;;5.35;3.63;;;2.00;99.90;;;;;;4882331;29;20040;-79
2021/03/06 09:36:34;;;;;;;5.65;3.95;;;2.10;99.90;;;;;;4914137;29;20036;-79
2021/03/06 09:39:04;;;;;;;7.60;4.00;;;2.10;99.90;;;;;;4896805;29;20044;-80
2021/03/06 09:41:41;;;;;;;8.52;5.00;;;2.20;99.90;;;;;;4882045;29;20040;-79
2021/03/06 09:44:14;;;;;;;12.15;5.05;;;2.30;99.90;;;;;;4898254;29;20412;-79
2021/03/06 09:46:46;;;;;;;9.77;5.40;;;2.40;99.90;;;;;;4897078;29;20052;-79
2021/03/06 09:49:17;;;;;;;9.48;4.60;;;2.50;99.90;;;;;;4896497;29;20504;-79
2021/03/06 09:51:54;;;;;;;8.63;4.30;;;2.50;99.90;;;;;;4896714;29;20048;-79
2021/03/06 09:54:27;;;;;;;7.93;4.85;;;2.70;99.60;;;;;;4881878;29;20044;-79
2021/03/06 09:57:00;;;;;;;8.13;4.50;;;2.70;99.10;;;;;;4896955;29;20048;-79
2021/03/06 09:59:40;;;;;;;7.70;4.10;;;2.80;99.90;;;;;;4882427;29;20048;-79
2021/03/06 10:02:11;;;;;;;10.98;4.85;;;2.90;98.80;;;;;;4881728;29;20044;-79
2021/03/06 10:04:46;;;;;;;5.95;4.03;;;2.90;99.60;;;;;;4897466;29;20052;-79
2021/03/06 10:07:13;;;;;;;5.28;3.70;;;3.00;99.40;;;;;;4896472;29;20047;-79
2021/03/06 10:09:44;;;;;;;6.72;4.20;;;3.00;97.70;;;;;;4896303;29;20062;-79
2021/03/06 10:12:17;;;;;;;10.38;4.10;;;3.10;97.80;;;;;;4896530;29;20499;-77
2021/03/06 10:14:50;;;;;;;5.25;3.53;;;3.10;97.80;;;;;;4896010;29;20044;-77
2021/03/06 10:17:23;;;;;;;5.40;3.90;;;3.30;94.90;;;;;;4896146;29;20072;-77
2021/03/06 10:19:54;;;;;;;8.60;4.25;;;3.40;94.80;;;;;;4880842;29;20044;-77
2021/03/06 10:22:26;;;;;;;6.82;4.07;;;3.50;95.20;;;;;;4896118;29;20041;-78
2021/03/06 10:25:03;;;;;;;4.85;4.05;;;3.60;94.80;;;;;;4881240;29;20062;-77
2021/03/06 10:27:42;;;;;;;9.82;7.28;;;3.60;94.00;;;;;;4896830;29;20048;-77
2021/03/06 10:30:26;;;;;;;5.80;4.03;;;3.60;94.60;;;;;;4881223;29;20059;-78
2021/03/06 10:33:03;;;;;;;5.40;3.80;;;3.80;93.60;;;;;;4896847;29;20047;-77
2021/03/06 10:35:48;;;;;;;7.85;4.00;;;3.80;88.80;;;;;;4878173;29;20052;-77
2021/03/06 10:38:31;;;;;;;6.00;4.15;;;3.90;91.60;;;;;;4880506;29;20054;-77
2021/03/06 10:41:05;;;;;;;8.20;4.18;;;4.00;89.70;;;;;;4895722;29;20044;-77
2021/03/06 10:43:39;;;;;;;5.38;3.70;;;4.00;88.20;;;;;;4880924;29;20511;-77
2021/03/06 10:46:11;;;;;;;4.65;3.17;;;4.10;87.90;;;;;;4911291;29;20591;-79
2021/03/06 10:48:52;;;;;;;5.75;3.80;;;4.10;85.60;;;;;;4880861;29;20051;-80
2021/03/06 10:51:24;;;;;;;4.32;3.10;;;4.10;86.50;;;;;;4896889;29;20058;-79
2021/03/06 10:54:04;;;;;;;4.57;3.53;;;4.10;89.00;;;;;;4897399;29;20071;-79
2021/03/06 10:56:36;;;;;;;5.15;3.78;;;4.10;90.00;;;;;;4900507;29;20048;-79
2021/03/06 10:59:09;;;;;;;7.57;3.40;;;4.10;90.70;;;;;;4905316;29;20044;-81
2021/03/06 11:01:48;;;;;;;5.82;3.83;;;4.20;90.80;;;;;;4902368;29;20048;-83
2021/03/06 11:20:56;;;;;;;4.63;2.88;;;4.50;76.00;;;;;;4990845;23;20063;-82
2021/03/06 11:23:25;;;;;;;3.58;2.78;;;4.60;77.80;;;;;;4923864;29;20048;-82
2021/03/06 11:26:02;;;;;;;4.00;2.85;;;4.60;78.50;;;;;;4933137;29;20061;-82
2021/03/06 11:37:41;;;;;;;4.32;3.05;;;4.90;72.60;;;;;;5890978;23;20384;-82
2021/03/06 11:43:46;;;;;;;3.72;2.30;;;5.00;74.10;;;;;;4896376;29;20016;-71
2021/03/06 11:46:22;;;;;;;2.92;2.15;;;5.10;69.00;;;;;;4931265;29;20135;-83
2021/03/06 11:49:19;;;;;;;9.18;2.95;;;5.20;68.50;;;;;;4914651;29;20076;-82
2021/03/06 11:52:07;;;;;;;6.35;2.95;;;5.30;70.30;;;;;;4911241;29;20059;-82
2021/03/06 11:55:33;;;;;;;3.20;2.40;;;5.30;67.80;;;;;;4915456;29;20047;-82
2021/03/06 11:59:24;;;;;;;9.63;5.93;;;5.40;69.30;;;;;;4916061;29;20060;-83
2021/03/06 12:03:48;;;;;;;6.13;3.65;;;5.40;65.10;;;;;;4899635;29;20048;-81
2021/03/06 12:11:48;;;;;;;3.78;2.13;;;5.50;66.30;;;;;;4900027;29;20509;-82
2021/03/06 12:18:32;;;;;;;3.35;1.98;;;5.70;64.70;;;;;;4866062;29;20041;-82
2021/03/06 12:21:52;;;;;;;3.55;2.35;;;5.80;66.90;;;;;;4900115;29;20061;-84
2021/03/06 12:30:02;;;;;;;3.42;2.17;;;5.90;63.20;;;;;;4846902;29;20025;-82
2021/03/06 12:46:26;;;;;;;3.25;2.40;;;6.40;60.50;;;;;;5260261;23;20043;-82
2021/03/06 13:05:01;;;;;;;2.92;2.22;;;6.40;57.40;;;;;;5138894;23;20050;-82
2021/03/06 13:13:03;;;;;;;4.03;2.33;;;6.50;58.60;;;;;;5132990;23;20099;-85
2021/03/06 13:48:37;;;;;;;4.35;2.58;;;6.90;54.50;;;;;;5014496;23;20099;-81
2021/03/06 13:51:09;;;;;;;5.78;2.90;;;6.90;57.40;;;;;;4920237;29;20079;-82
2021/03/06 13:54:01;;;;;;;5.43;2.28;;;6.90;55.60;;;;;;4935263;29;20114;-80
2021/03/06 14:00:07;;;;;;;4.15;2.63;;;7.00;53.60;;;;;;5151222;23;20055;-82
2021/03/06 14:03:00;;;;;;;4.45;2.83;;;6.90;54.20;;;;;;4952032;29;20130;-82
2021/03/06 14:05:32;;;;;;;4.57;3.60;;;6.90;52.90;;;;;;4955822;29;20071;-83
2021/03/06 14:14:34;;;;;;;3.85;2.30;;;7.00;51.30;;;;;;5000542;23;20287;-83
2021/03/06 14:25:17;;;;;;;2.50;2.03;;;7.00;52.70;;;;;;4954709;29;20047;-80
2021/03/06 14:34:28;;;;;;;5.45;3.78;;;7.30;53.80;;;;;;5804258;23;20080;-82
2021/03/06 16:33:36;;;;;;;4.40;2.88;;;9.50;47.10;;;;;;4925514;29;20475;-83
2021/03/06 16:36:02;;;;;;;3.00;2.25;;;8.80;48.00;;;;;;4910471;29;20048;-83
2021/03/06 16:41:27;;;;;;;2.92;2.40;;;7.80;50.30;;;;;;5092053;23;20055;-83
2021/03/06 16:43:54;;;;;;;3.45;2.38;;;7.40;51.50;;;;;;4946668;29;20491;-83
2021/03/06 16:46:24;;;;;;;3.60;2.83;;;7.10;51.50;;;;;;4930564;29;20047;-83
2021/03/06 16:48:50;;;;;;;3.80;2.60;;;6.80;51.80;;;;;;4930846;29;20047;-83
2021/03/06 16:51:18;;;;;;;4.30;2.85;;;6.70;53.10;;;;;;4946495;29;20057;-84
2021/03/06 16:53:44;;;;;;;4.35;2.70;;;6.50;53.00;;;;;;4931392;29;20079;-83
2021/03/06 16:56:11;;;;;;;5.63;3.17;;;6.30;52.30;;;;;;4933314;29;20047;-83
2021/03/06 17:01:46;;;;;;;3.72;2.50;;;6.00;55.30;;;;;;4999280;23;20440;-83
2021/03/06 17:05:35;;;;;;;4.75;3.45;;;5.90;55.80;;;;;;4908751;29;20125;-82
2021/03/06 17:08:45;;;;;;;3.35;2.60;;;5.80;57.10;;;;;;5205990;23;20033;-83
2021/03/06 17:15:43;;;;;;;4.35;2.50;;;5.30;59.60;;;;;;4858509;29;20048;-77
2021/03/06 17:18:14;;;;;;;5.38;2.80;;;5.10;58.90;;;;;;4873561;29;20060;-78
2021/03/06 17:20:46;;;;;;;4.13;2.70;;;4.80;61.80;;;;;;4874327;29;20045;-81
2021/03/06 17:23:17;;;;;;;6.85;2.88;;;4.60;62.20;;;;;;4877140;29;20053;-79
2021/03/06 17:25:49;;;;;;;4.13;2.72;;;4.30;64.10;;;;;;4878347;29;20060;-80
2021/03/06 17:56:26;;;;;;;3.67;2.42;;;2.50;84.10;;;;;;4933033;29;20468;-79
2021/03/06 18:02:37;;;;;;;5.03;3.35;;;2.30;90.00;;;;;;4900372;29;20477;-78
2021/03/06 18:05:09;;;;;;;10.57;6.03;;;2.10;91.50;;;;;;4900967;29;20492;-79
2021/03/06 18:07:41;;;;;;;6.43;4.78;;;2.00;92.90;;;;;;4885333;29;20044;-78
2021/03/06 18:15:54;;;;;;;13.85;7.65;;;1.80;95.90;;;;;;5925182;23;20045;-79
2021/03/06 18:21:17;;;;;;;4.28;3.28;;;1.80;97.50;;;;;;4895394;29;20045;-79
2021/03/06 18:23:48;;;;;;;4.45;3.00;;;1.80;97.40;;;;;;4897439;29;20385;-79
2021/03/06 18:26:20;;;;;;;4.45;3.28;;;1.70;97.90;;;;;;4881423;29;20125;-78
2021/03/06 18:31:47;;;;;;;7.22;4.70;;;1.70;98.20;;;;;;5428067;23;20408;-79
2021/03/06 18:34:19;;;;;;;10.07;6.25;;;1.60;98.00;;;;;;4937856;29;20047;-78
2021/03/06 18:36:50;;;;;;;21.13;11.93;;;1.70;97.40;;;;;;4922902;29;20051;-79